Time;durP1;ratioP1;P1;durP2;ratioP2;P2;SDS_P1;SDS_P2;PMS_P1;PMS_P2;Temp;Humidity;BMP_temperature;BMP_pressure;BME280_temperature;BME280_humidity;BME280_pressure;Samples;Min_cycle;Max_cycle;Signal;HPM_P1;HPM_P2
2023/11/16 16:30:30;;;;;;;13.60;6.97;;;;;;;;;;6287643;22;20121;-90
2023/11/16 16:33:09;;;;;;;12.90;7.20;;;;;;;;;;6263667;22;20004;-90
2023/11/16 16:35:38;;;;;;;13.65;7.10;;;;;;;;;;6269276;22;20440;-91
2023/11/16 16:41:48;;;;;;;8.95;4.82;;;;;;;;;;6283286;22;20087;-96
2023/11/16 16:47:14;;;;;;;11.43;5.97;;;;;;;;;;6148997;23;20014;-95
2023/11/16 16:58:45;;;;;;;11.63;5.80;;;;;;;;;;6261198;22;20024;-93
2023/11/16 17:04:38;;;;;;;20.45;7.78;;;;;;;;;;6247781;22;20024;-89
2023/11/16 17:07:21;;;;;;;23.55;9.27;;;;;;;;;;6221809;23;20013;-90
2023/11/16 17:09:50;;;;;;;20.20;8.27;;;;;;;;;;6220588;23;20008;-90
2023/11/16 17:25:57;;;;;;;17.10;7.88;;;;;;;;;;6245114;22;20028;-94
2023/11/16 17:28:26;;;;;;;15.32;7.45;;;;;;;;;;6258599;22;20007;-94
2023/11/16 17:30:57;;;;;;;19.92;9.55;;;;;;;;;;6226614;22;20074;-93
2023/11/16 17:33:30;;;;;;;16.05;8.30;;;;;;;;;;6258656;22;20095;-96
2023/11/16 17:38:58;;;;;;;19.08;9.48;;;;;;;;;;6257241;22;20015;-96
2023/11/16 17:41:24;;;;;;;16.92;9.02;;;;;;;;;;6212809;22;20396;-93
2023/11/16 17:46:36;;;;;;;16.75;9.18;;;;;;;;;;6254526;23;20015;-91
2023/11/16 17:54:14;;;;;;;13.98;7.82;;;;;;;;;;6256046;22;19922;-91
2023/11/16 17:56:42;;;;;;;21.15;8.95;;;;;;;;;;6255679;22;20115;-90
2023/11/16 18:02:13;;;;;;;11.95;7.15;;;;;;;;;;6231867;22;20051;-90
2023/11/16 18:04:44;;;;;;;10.40;5.72;;;;;;;;;;6225226;23;20000;-95
2023/11/16 18:07:17;;;;;;;10.48;5.75;;;;;;;;;;6228118;23;20022;-93
2023/11/16 18:12:31;;;;;;;11.43;5.75;;;;;;;;;;6298261;22;20024;-92
2023/11/16 18:14:57;;;;;;;13.57;8.23;;;;;;;;;;6268160;22;20004;-92
2023/11/16 18:17:30;;;;;;;13.98;7.13;;;;;;;;;;6259907;22;20368;-94
2023/11/16 18:19:56;;;;;;;11.77;7.15;;;;;;;;;;6256585;22;20004;-91
2023/11/16 18:22:35;;;;;;;13.20;6.90;;;;;;;;;;6259403;22;20031;-92
2023/11/16 18:25:16;;;;;;;15.57;7.07;;;;;;;;;;6262957;22;20417;-93
2023/11/16 18:27:43;;;;;;;12.65;7.35;;;;;;;;;;6259297;22;20047;-92
2023/11/16 18:33:33;;;;;;;10.02;5.43;;;;;;;;;;6256203;22;20043;-96
2023/11/16 18:36:01;;;;;;;11.35;4.38;;;;;;;;;;6279521;22;20011;-94
2023/11/16 18:39:00;;;;;;;10.07;5.28;;;;;;;;;;6283151;22;20008;-96
2023/11/16 18:41:37;;;;;;;9.30;5.10;;;;;;;;;;6197775;23;20012;-95
2023/11/16 18:44:19;;;;;;;9.15;5.00;;;;;;;;;;6260972;22;20015;-94
2023/11/16 18:46:45;;;;;;;7.60;3.90;;;;;;;;;;6282462;22;20113;-94
2023/11/16 18:49:12;;;;;;;6.90;3.83;;;;;;;;;;6285834;22;20016;-96
2023/11/16 18:51:54;;;;;;;9.25;4.28;;;;;;;;;;6259449;22;20000;-96
2023/11/16 18:54:22;;;;;;;7.07;2.97;;;;;;;;;;6259418;22;20422;-91
2023/11/16 18:56:49;;;;;;;6.82;3.75;;;;;;;;;;6248846;23;20000;-94
2023/11/16 18:59:46;;;;;;;6.15;3.25;;;;;;;;;;6224318;23;20020;-92
2023/11/16 19:02:26;;;;;;;5.93;3.17;;;;;;;;;;6108393;23;20006;-95
2023/11/16 19:04:59;;;;;;;8.32;2.97;;;;;;;;;;6108461;23;20451;-96
2023/11/16 19:07:32;;;;;;;6.30;3.30;;;;;;;;;;6129173;23;20161;-96
2023/11/16 19:09:59;;;;;;;7.95;3.20;;;;;;;;;;6104202;23;20040;-90
2023/11/16 19:13:06;;;;;;;;;;;;;;;;;;;;;
2023/11/16 19:16:01;;;;;;;9.52;4.78;;;;;;;;;;6223453;23;20043;-96
2023/11/16 19:18:31;;;;;;;6.57;3.90;;;;;;;;;;6197204;23;20012;-96
2023/11/16 19:21:04;;;;;;;6.72;4.53;;;;;;;;;;6195480;23;20036;-96
2023/11/16 19:23:50;;;;;;;;;;;;;;;;;;;;;
2023/11/16 19:32:06;;;;;;;19.48;8.82;;;;;;;;;;6224141;23;20048;-92
2023/11/16 19:35:04;;;;;;;;;;;;;;;;;;;;;
2023/11/16 19:41:02;;;;;;;;;;;;;;;;;;;;;
2023/11/16 19:44:03;;;;;;;;;;;;;;;;;;;;;
2023/11/16 19:50:10;;;;;;;12.13;5.97;;;;;;;;;;6084297;23;20082;-96
2023/11/16 19:53:20;;;;;;;;;;;;;;;;;;;;;
2023/11/16 19:56:07;;;;;;;11.18;4.63;;;;;;;;;;6061887;23;20418;-94
2023/11/16 20:02:01;;;;;;;12.27;6.93;;;;;;;;;;6047295;23;20059;-96
2023/11/16 20:04:38;;;;;;;10.55;4.82;;;;;;;;;;6041637;23;20003;-94
2023/11/16 20:07:05;;;;;;;8.07;4.70;;;;;;;;;;6081800;23;20395;-94
2023/11/16 20:09:31;;;;;;;9.57;5.10;;;;;;;;;;6105421;23;20002;-94
2023/11/16 20:12:01;;;;;;;10.43;5.25;;;;;;;;;;6158925;23;20009;-96
2023/11/16 20:15:17;;;;;;;;;;;;;;;;;;;;;
2023/11/16 20:18:13;;;;;;;10.98;5.63;;;;;;;;;;6224419;23;20358;-94
2023/11/16 20:20:44;;;;;;;8.65;5.35;;;;;;;;;;6199298;23;20000;-95
2023/11/16 20:23:11;;;;;;;10.85;5.55;;;;;;;;;;6193672;23;20441;-96
2023/11/16 20:25:37;;;;;;;12.02;5.65;;;;;;;;;;6195689;23;20001;-95
2023/11/16 20:28:05;;;;;;;8.45;4.30;;;;;;;;;;6191158;23;20016;-94
2023/11/16 20:30:47;;;;;;;;;;;;;;;;;;;;;
2023/11/16 20:33:15;;;;;;;10.30;5.60;;;;;;;;;;6229281;23;20029;-93
2023/11/16 20:35:42;;;;;;;10.75;5.22;;;;;;;;;;6192906;23;20366;-94
2023/11/16 20:38:08;;;;;;;11.93;5.78;;;;;;;;;;6191083;23;20005;-95
2023/11/16 20:40:37;;;;;;;11.68;6.93;;;;;;;;;;6191006;23;20127;-95
2023/11/16 20:43:24;;;;;;;13.30;6.82;;;;;;;;;;6190409;23;20011;-96
2023/11/16 20:45:52;;;;;;;10.40;6.07;;;;;;;;;;6191092;23;20011;-94
2023/11/16 20:54:18;;;;;;;15.07;8.32;;;;;;;;;;6099593;23;20002;-91
2023/11/16 21:03:33;;;;;;;11.68;7.10;;;;;;;;;;6163268;23;20009;-95
2023/11/16 21:09:28;;;;;;;13.55;7.07;;;;;;;;;;6199711;23;20024;-96
2023/11/16 21:12:26;;;;;;;11.80;6.65;;;;;;;;;;6197553;23;20008;-96
2023/11/16 21:14:58;;;;;;;16.75;8.20;;;;;;;;;;6220908;23;20005;-92
2023/11/16 21:17:27;;;;;;;21.63;9.60;;;;;;;;;;6202270;23;20024;-93
2023/11/16 21:19:58;;;;;;;15.45;7.88;;;;;;;;;;6202169;23;20046;-90
2023/11/16 21:22:27;;;;;;;17.83;8.55;;;;;;;;;;6181888;23;20040;-92
2023/11/16 21:24:54;;;;;;;16.65;8.80;;;;;;;;;;6218224;23;19996;-93
2023/11/16 21:30:29;;;;;;;17.02;9.23;;;;;;;;;;6227705;23;20027;-96
2023/11/16 21:33:27;;;;;;;20.70;10.32;;;;;;;;;;6228713;23;20008;-96
2023/11/16 21:52:14;;;;;;;22.75;10.77;;;;;;;;;;6194747;22;20034;-96
2023/11/16 22:00:13;;;;;;;19.00;10.57;;;;;;;;;;6268272;23;19970;-96
2023/11/16 22:02:53;;;;;;;19.60;11.02;;;;;;;;;;6225726;23;20016;-96
2023/11/16 22:08:24;;;;;;;20.88;10.40;;;;;;;;;;6254818;23;20527;-96
2023/11/16 22:13:41;;;;;;;15.70;8.70;;;;;;;;;;6250431;23;20030;-96
2023/11/16 22:16:26;;;;;;;;;;;;;;;;;;;;;
2023/11/16 22:19:25;;;;;;;;;;;;;;;;;;;;;
2023/11/16 22:21:56;;;;;;;19.52;8.60;;;;;;;;;;6237620;23;20436;-91
2023/11/16 22:30:32;;;;;;;25.23;10.10;;;;;;;;;;6200425;23;20043;-95
2023/11/16 22:33:28;;;;;;;17.33;9.68;;;;;;;;;;6252681;23;20008;-96
2023/11/16 22:36:03;;;;;;;18.83;10.10;;;;;;;;;;6250316;23;20031;-96
2023/11/16 22:38:38;;;;;;;18.27;10.32;;;;;;;;;;6199492;23;20089;-95
2023/11/16 22:41:12;;;;;;;43.67;16.30;;;;;;;;;;6222372;23;20001;-93
2023/11/16 22:44:04;;;;;;;38.38;16.50;;;;;;;;;;6221950;23;20039;-96
2023/11/16 22:46:35;;;;;;;29.20;13.77;;;;;;;;;;6223656;23;20001;-95
2023/11/16 22:49:14;;;;;;;;;;;;;;;;;;;;;
2023/11/16 22:51:41;;;;;;;22.63;11.60;;;;;;;;;;6223345;23;20096;-92
2023/11/16 22:54:11;;;;;;;21.58;11.20;;;;;;;;;;6223877;23;20012;-94
2023/11/16 22:56:49;;;;;;;16.95;9.70;;;;;;;;;;6222989;23;20082;-96
2023/11/16 22:59:22;;;;;;;20.98;10.32;;;;;;;;;;6247864;23;20066;-96
2023/11/16 23:01:51;;;;;;;22.88;11.70;;;;;;;;;;6225473;23;20495;-93
2023/11/16 23:04:23;;;;;;;18.92;10.45;;;;;;;;;;6238978;22;20004;-92
2023/11/16 23:07:58;;;;;;;25.27;12.05;;;;;;;;;;6244011;23;20008;-94
2023/11/16 23:10:02;;;;;;;22.23;9.43;;;;;;;;;;6218426;23;20377;-96
2023/11/16 23:16:05;;;;;;;18.40;10.48;;;;;;;;;;6167735;23;20086;-96
2023/11/16 23:18:41;;;;;;;25.25;11.32;;;;;;;;;;6166575;23;20021;-96
2023/11/16 23:21:45;;;;;;;;;;;;;;;;;;;;;
2023/11/16 23:27:26;;;;;;;22.33;12.70;;;;;;;;;;6146831;23;20041;-96
2023/11/16 23:40:04;;;;;;;;;;;;;;;;;;;;;
2023/11/16 23:43:04;;;;;;;;;;;;;;;;;;;;;
2023/11/16 23:45:46;;;;;;;18.33;8.60;;;;;;;;;;6046603;23;20034;-96
2023/11/16 23:48:21;;;;;;;17.42;9.60;;;;;;;;;;6080232;23;20462;-96
2023/11/16 23:50:57;;;;;;;16.25;9.60;;;;;;;;;;6077346;23;20085;-95
2023/11/16 23:56:52;;;;;;;17.90;9.80;;;;;;;;;;6174532;23;20466;-96
2023/11/16 23:59:52;;;;;;;18.83;10.30;;;;;;;;;;6228096;23;20087;-96
